Time;durP1;ratioP1;P1;durP2;ratioP2;P2;SDS_P1;SDS_P2;PMS_P1;PMS_P2;Temp;Humidity;BMP_temperature;BMP_pressure;BME280_temperature;BME280_humidity;BME280_pressure;Samples;Min_cycle;Max_cycle;Signal;HPM_P1;HPM_P2
2023/03/27 00:01:10;;;;;;;10.33;6.73;;;10.70;96.10;;;;;;5093740;28;20308;-65
2023/03/27 00:03:38;;;;;;;7.97;7.17;;;10.70;96.10;;;;;;5094485;28;20545;-65
2023/03/27 00:06:10;;;;;;;8.87;6.83;;;10.80;96.20;;;;;;5094885;28;20188;-65
2023/03/27 00:08:37;;;;;;;8.53;6.03;;;10.70;96.20;;;;;;5096012;28;20224;-65
2023/03/27 00:11:06;;;;;;;8.83;6.50;;;10.70;96.20;;;;;;5095528;28;20576;-65
2023/03/27 00:13:35;;;;;;;7.97;6.83;;;10.70;96.20;;;;;;5096369;28;20197;-65
2023/03/27 00:16:15;;;;;;;9.20;6.70;;;10.70;96.20;;;;;;5093535;28;20192;-65
2023/03/27 00:18:43;;;;;;;9.60;6.70;;;10.70;96.20;;;;;;5096029;28;20215;-65
2023/03/27 00:21:11;;;;;;;9.43;6.80;;;10.70;96.20;;;;;;5095782;28;20216;-67
2023/03/27 00:23:37;;;;;;;10.33;7.57;;;10.70;96.20;;;;;;5091554;28;20234;-65
2023/03/27 00:26:05;;;;;;;10.23;6.97;;;10.70;96.20;;;;;;5094009;28;20256;-65
2023/03/27 00:28:33;;;;;;;9.00;7.03;;;10.70;96.20;;;;;;5094902;28;20200;-65
2023/03/27 00:31:00;;;;;;;12.77;7.30;;;10.70;96.10;;;;;;5092929;28;20222;-66
2023/03/27 00:33:27;;;;;;;9.30;6.53;;;10.60;95.90;;;;;;5092597;28;20201;-66
2023/03/27 00:35:55;;;;;;;7.70;6.87;;;10.60;95.90;;;;;;5090420;28;20657;-65
2023/03/27 00:38:23;;;;;;;8.83;6.10;;;10.50;95.80;;;;;;5094932;28;20200;-65
2023/03/27 00:40:53;;;;;;;10.53;7.30;;;10.50;95.70;;;;;;5093345;28;20227;-66
2023/03/27 00:43:26;;;;;;;9.10;6.83;;;10.40;95.60;;;;;;5095744;28;20261;-65
2023/03/27 00:46:13;;;;;;;9.07;7.47;;;10.40;95.60;;;;;;5088595;28;20236;-68
2023/03/27 00:48:45;;;;;;;7.80;7.00;;;10.30;95.70;;;;;;5088369;28;20220;-65
2023/03/27 00:51:14;;;;;;;9.13;7.07;;;10.30;95.70;;;;;;5093706;28;20207;-65
2023/03/27 00:53:41;;;;;;;9.93;6.90;;;10.20;95.70;;;;;;5093503;28;20286;-65
2023/03/27 00:56:09;;;;;;;9.57;7.63;;;10.20;95.70;;;;;;5093602;28;20195;-66
2023/03/27 00:58:41;;;;;;;8.20;6.93;;;10.20;95.80;;;;;;5095073;28;20210;-65
2023/03/27 01:01:12;;;;;;;8.53;6.43;;;10.10;95.70;;;;;;5093521;28;20204;-65
2023/03/27 01:03:41;;;;;;;10.77;7.50;;;10.10;95.70;;;;;;5094503;28;20209;-65
2023/03/27 01:06:12;;;;;;;8.53;6.97;;;10.10;95.60;;;;;;5095028;28;20641;-65
2023/03/27 01:08:42;;;;;;;10.57;6.97;;;10.00;95.60;;;;;;5092900;28;20210;-67
2023/03/27 01:11:21;;;;;;;10.90;7.60;;;10.00;95.80;;;;;;5085925;28;20216;-65
2023/03/27 01:14:12;;;;;;;10.20;8.07;;;9.90;95.60;;;;;;5092260;28;20587;-66
2023/03/27 01:17:06;;;;;;;10.73;7.90;;;10.00;95.80;;;;;;5107542;28;20196;-66
2023/03/27 01:19:40;;;;;;;11.43;9.00;;;9.90;96.00;;;;;;5092643;28;20198;-65
2023/03/27 01:22:29;;;;;;;8.67;7.00;;;9.90;96.10;;;;;;5094383;28;20227;-65
2023/03/27 01:25:15;;;;;;;10.10;7.83;;;10.00;96.30;;;;;;5108717;28;20211;-66
2023/03/27 01:27:51;;;;;;;10.00;7.53;;;10.00;96.30;;;;;;5090160;28;20228;-65
2023/03/27 01:30:31;;;;;;;11.17;7.07;;;10.00;96.20;;;;;;5095629;28;20199;-65
2023/03/27 01:33:25;;;;;;;10.97;7.90;;;10.00;96.20;;;;;;5108705;28;20231;-65
2023/03/27 01:35:55;;;;;;;9.70;7.13;;;9.90;96.10;;;;;;5108267;28;20303;-65
2023/03/27 01:38:28;;;;;;;9.67;7.87;;;9.90;96.10;;;;;;5094845;28;20204;-65
2023/03/27 01:41:25;;;;;;;8.57;7.03;;;9.90;96.10;;;;;;5110401;28;20627;-64
2023/03/27 01:44:00;;;;;;;11.93;7.60;;;9.90;96.10;;;;;;5094171;28;20292;-67
2023/03/27 01:46:36;;;;;;;11.63;7.50;;;9.90;96.10;;;;;;5093595;28;20205;-65
2023/03/27 01:49:11;;;;;;;10.97;7.30;;;9.80;96.10;;;;;;5090764;28;20223;-65
2023/03/27 01:51:41;;;;;;;7.53;6.67;;;9.80;96.10;;;;;;5090560;28;20294;-65
2023/03/27 01:54:15;;;;;;;9.63;7.47;;;9.80;96.00;;;;;;5093597;28;20694;-65
2023/03/27 01:56:56;;;;;;;9.37;7.83;;;9.80;95.90;;;;;;5087785;28;20230;-65
2023/03/27 01:59:26;;;;;;;9.90;7.23;;;9.80;96.00;;;;;;5093410;28;20311;-65
2023/03/27 02:02:00;;;;;;;8.87;7.80;;;9.70;95.80;;;;;;5093010;28;20266;-65
2023/03/27 02:04:42;;;;;;;11.43;7.43;;;9.60;95.70;;;;;;5091525;28;20705;-65
2023/03/27 02:07:17;;;;;;;8.80;6.73;;;9.60;95.80;;;;;;5085987;28;20300;-65
2023/03/27 02:09:54;;;;;;;8.57;7.43;;;9.50;95.80;;;;;;5089597;28;20204;-65
2023/03/27 02:12:51;;;;;;;9.17;6.87;;;9.50;95.60;;;;;;5088898;28;20223;-65
2023/03/27 02:15:22;;;;;;;8.93;7.80;;;9.40;95.40;;;;;;5092006;28;20307;-65
2023/03/27 02:18:03;;;;;;;9.67;7.67;;;9.30;95.30;;;;;;5091859;28;20187;-65
2023/03/27 02:20:33;;;;;;;11.13;8.20;;;9.20;95.30;;;;;;5105855;28;20205;-66
2023/03/27 02:23:00;;;;;;;7.83;7.03;;;9.10;95.40;;;;;;5093018;28;20311;-65
2023/03/27 02:25:35;;;;;;;9.27;6.77;;;9.10;95.50;;;;;;5094179;28;20196;-65
2023/03/27 02:28:05;;;;;;;8.33;7.00;;;9.10;95.40;;;;;;5090823;28;20233;-65
2023/03/27 02:30:41;;;;;;;9.20;7.47;;;9.00;95.10;;;;;;5072122;28;20636;-65
2023/03/27 02:33:43;;;;;;;10.20;6.93;;;8.90;95.30;;;;;;5073218;28;20204;-65
2023/03/27 02:36:47;;;;;;;8.93;7.53;;;8.90;95.60;;;;;;5105206;28;20250;-66
2023/03/27 02:39:35;;;;;;;11.90;7.53;;;8.90;95.70;;;;;;5071098;28;20212;-66
2023/03/27 02:42:06;;;;;;;11.40;7.63;;;8.90;95.70;;;;;;5079971;28;20262;-65
2023/03/27 02:45:24;;;;;;;9.47;8.00;;;8.90;95.80;;;;;;5090840;28;20245;-65
2023/03/27 02:47:57;;;;;;;8.33;5.97;;;8.90;95.90;;;;;;5088187;28;20215;-65
2023/03/27 02:50:30;;;;;;;10.70;8.10;;;8.90;95.90;;;;;;5106519;28;20290;-65
2023/03/27 02:53:09;;;;;;;7.20;6.00;;;8.80;95.70;;;;;;5088751;28;20208;-65
2023/03/27 02:55:44;;;;;;;53.97;9.07;;;8.80;95.80;;;;;;5093899;28;20219;-70
2023/03/27 02:58:22;;;;;;;290.57;13.03;;;8.80;95.70;;;;;;5107809;28;20205;-65
2023/03/27 03:00:57;;;;;;;8.57;6.10;;;8.80;95.70;;;;;;5092787;28;20290;-65
2023/03/27 03:03:47;;;;;;;9.07;6.93;;;8.70;95.60;;;;;;5091694;28;20283;-65
2023/03/27 03:06:29;;;;;;;8.97;7.20;;;8.60;95.60;;;;;;5087251;28;20201;-65
2023/03/27 03:09:05;;;;;;;7.13;5.40;;;8.60;95.60;;;;;;5087917;28;20209;-65
2023/03/27 03:11:43;;;;;;;4.77;4.03;;;8.50;95.60;;;;;;5092874;28;20206;-65
2023/03/27 03:14:11;;;;;;;5.87;4.27;;;8.50;95.60;;;;;;5092311;28;20209;-65
2023/03/27 03:16:38;;;;;;;5.07;4.50;;;8.50;95.50;;;;;;5088912;28;20206;-67
2023/03/27 03:19:05;;;;;;;6.33;5.00;;;8.40;95.50;;;;;;5093536;28;20215;-65
2023/03/27 03:21:32;;;;;;;7.30;5.17;;;8.40;95.40;;;;;;5093579;28;20285;-65
2023/03/27 03:24:00;;;;;;;10.07;6.60;;;8.30;95.70;;;;;;5094429;28;20269;-65
2023/03/27 03:26:27;;;;;;;5.83;4.87;;;8.30;95.40;;;;;;5110934;28;20202;-65
2023/03/27 03:28:56;;;;;;;9.03;6.20;;;8.30;95.30;;;;;;5095984;28;20708;-66
2023/03/27 03:31:42;;;;;;;12.43;7.90;;;8.30;95.30;;;;;;5102649;28;20197;-65
2023/03/27 03:34:17;;;;;;;10.30;7.60;;;8.20;95.30;;;;;;5091762;28;20214;-65
2023/03/27 03:36:47;;;;;;;7.97;7.17;;;8.20;95.60;;;;;;5095054;28;20211;-65
2023/03/27 03:39:21;;;;;;;12.77;8.90;;;8.20;95.70;;;;;;5096292;28;20292;-65
2023/03/27 03:41:49;;;;;;;12.90;8.63;;;8.30;95.70;;;;;;5109962;28;20226;-65
2023/03/27 03:44:16;;;;;;;11.83;8.10;;;8.30;95.90;;;;;;5096556;28;20682;-65
2023/03/27 03:46:43;;;;;;;14.40;9.80;;;8.30;95.90;;;;;;5091557;28;20211;-65
2023/03/27 03:49:10;;;;;;;10.07;7.90;;;8.30;96.00;;;;;;5096880;28;20250;-65
2023/03/27 03:51:38;;;;;;;12.63;9.43;;;8.30;96.10;;;;;;5094328;28;20233;-65
2023/03/27 03:54:05;;;;;;;12.17;8.90;;;8.40;96.10;;;;;;5095550;28;20213;-65
2023/03/27 03:56:33;;;;;;;14.07;10.67;;;8.40;96.00;;;;;;5095566;28;20306;-65
2023/03/27 03:59:00;;;;;;;12.60;8.80;;;8.40;96.00;;;;;;5095653;28;20549;-65
2023/03/27 04:01:28;;;;;;;14.00;9.30;;;8.40;96.10;;;;;;5093451;28;20625;-68
2023/03/27 04:04:01;;;;;;;18.00;9.97;;;8.40;96.10;;;;;;5092948;28;20229;-65
2023/03/27 04:06:44;;;;;;;11.83;8.97;;;8.40;96.10;;;;;;5105042;28;20215;-65
2023/03/27 04:09:11;;;;;;;15.63;8.87;;;8.40;96.10;;;;;;5094374;28;20307;-66
2023/03/27 04:11:51;;;;;;;13.60;8.93;;;8.30;96.10;;;;;;5094277;28;20659;-65
2023/03/27 04:14:42;;;;;;;11.47;8.77;;;8.30;96.20;;;;;;5095293;28;20199;-66
2023/03/27 04:17:32;;;;;;;7.80;6.37;;;8.40;96.30;;;;;;5093182;28;20536;-65
2023/03/27 04:20:01;;;;;;;8.73;6.57;;;8.40;96.30;;;;;;5091035;28;20194;-65
2023/03/27 04:22:28;;;;;;;9.57;6.73;;;8.40;96.20;;;;;;5094404;28;20296;-65
2023/03/27 04:24:56;;;;;;;11.17;7.43;;;8.30;96.10;;;;;;5093728;28;20206;-65
2023/03/27 04:27:29;;;;;;;10.07;8.03;;;8.30;96.00;;;;;;5094259;28;20213;-65
2023/03/27 04:30:12;;;;;;;10.63;9.10;;;8.30;95.90;;;;;;5090578;28;20213;-66
2023/03/27 04:33:06;;;;;;;15.17;8.13;;;8.20;95.90;;;;;;5089141;28;20219;-65
2023/03/27 04:35:52;;;;;;;9.60;8.53;;;8.20;95.90;;;;;;5095145;28;20268;-65
2023/03/27 04:38:41;;;;;;;9.90;7.70;;;8.20;96.00;;;;;;5093136;28;20238;-66
2023/03/27 04:41:10;;;;;;;13.33;7.83;;;8.10;96.00;;;;;;5093382;28;20220;-71
2023/03/27 04:43:40;;;;;;;10.37;7.30;;;8.10;96.10;;;;;;5094603;28;20556;-65
2023/03/27 04:46:07;;;;;;;10.13;6.23;;;8.10;96.10;;;;;;5108697;28;20567;-66
2023/03/27 04:48:37;;;;;;;33.20;8.77;;;8.10;96.00;;;;;;5093517;28;20237;-65
2023/03/27 04:51:18;;;;;;;9.37;6.97;;;8.00;95.80;;;;;;5088352;28;20653;-65
2023/03/27 04:53:46;;;;;;;9.03;6.73;;;8.00;95.80;;;;;;5093716;28;20209;-68
2023/03/27 04:56:15;;;;;;;11.07;7.43;;;7.90;95.90;;;;;;5087824;28;20299;-65
2023/03/27 04:58:44;;;;;;;7.73;6.60;;;7.90;96.00;;;;;;5093620;28;20205;-65
2023/03/27 05:01:14;;;;;;;7.97;6.30;;;7.90;96.00;;;;;;5077142;28;20241;-64
2023/03/27 05:04:01;;;;;;;8.57;6.70;;;7.90;96.00;;;;;;5090136;28;20219;-65
2023/03/27 05:06:46;;;;;;;6.60;5.80;;;7.90;96.00;;;;;;5092991;28;20205;-65
2023/03/27 05:09:16;;;;;;;5.80;5.20;;;7.80;95.80;;;;;;5091780;28;20225;-65
2023/03/27 05:11:48;;;;;;;8.60;5.60;;;7.80;95.60;;;;;;5094581;28;20257;-65
2023/03/27 05:14:20;;;;;;;11.07;7.73;;;7.70;95.60;;;;;;5091613;28;20216;-66
2023/03/27 05:16:49;;;;;;;23.50;6.80;;;7.70;95.60;;;;;;5094355;28;20298;-65
2023/03/27 05:19:21;;;;;;;95.93;10.30;;;7.70;95.70;;;;;;5093623;28;20199;-64
2023/03/27 05:21:56;;;;;;;13.03;5.87;;;7.70;95.80;;;;;;5089713;28;20219;-69
2023/03/27 05:24:23;;;;;;;16.97;7.23;;;7.70;95.80;;;;;;5093238;28;20227;-65
2023/03/27 05:26:52;;;;;;;7.60;6.10;;;7.70;95.90;;;;;;5094066;28;20216;-65
2023/03/27 05:29:19;;;;;;;5.63;5.13;;;7.70;95.80;;;;;;5093310;28;20224;-65
2023/03/27 05:31:53;;;;;;;8.10;5.77;;;7.70;95.80;;;;;;5088705;28;20254;-65
2023/03/27 05:34:37;;;;;;;4.97;4.57;;;7.80;96.00;;;;;;5093564;28;20266;-65
2023/03/27 05:37:06;;;;;;;5.20;4.70;;;7.80;96.10;;;;;;5082076;28;20631;-67
2023/03/27 05:39:45;;;;;;;8.07;5.63;;;7.90;95.90;;;;;;5093625;28;20259;-65
2023/03/27 05:42:14;;;;;;;10.33;7.87;;;7.90;95.80;;;;;;5093238;28;20208;-65
2023/03/27 05:44:42;;;;;;;12.57;8.73;;;8.00;95.80;;;;;;5089093;28;20273;-65
2023/03/27 05:47:11;;;;;;;17.23;10.20;;;8.10;95.90;;;;;;5090136;28;20535;-65
2023/03/27 05:49:39;;;;;;;19.73;10.53;;;8.20;96.30;;;;;;5090604;28;20209;-65
2023/03/27 05:52:10;;;;;;;14.90;10.47;;;8.30;96.10;;;;;;5083775;28;20205;-65
2023/03/27 05:54:37;;;;;;;16.60;12.73;;;8.40;96.30;;;;;;5094618;28;20194;-65
2023/03/27 05:57:09;;;;;;;13.33;11.37;;;8.60;96.50;;;;;;5089146;28;20267;-65
2023/03/27 05:59:38;;;;;;;21.63;13.57;;;8.80;96.70;;;;;;5093616;28;20291;-65
2023/03/27 06:02:24;;;;;;;17.97;11.93;;;9.10;96.60;;;;;;5079076;28;20210;-65
2023/03/27 06:04:57;;;;;;;15.63;11.33;;;9.30;96.40;;;;;;5085052;28;20231;-65
2023/03/27 06:07:39;;;;;;;18.57;11.53;;;9.50;96.30;;;;;;5090791;28;20545;-65
2023/03/27 06:10:12;;;;;;;17.27;11.50;;;9.60;96.10;;;;;;5091146;28;20190;-65
2023/03/27 06:13:05;;;;;;;14.60;11.00;;;9.70;96.00;;;;;;5094665;28;20217;-64
2023/03/27 06:15:41;;;;;;;17.33;10.40;;;9.80;95.90;;;;;;5084102;28;20265;-64
2023/03/27 06:18:17;;;;;;;17.70;10.50;;;9.90;95.90;;;;;;5093360;28;20214;-64
2023/03/27 06:20:44;;;;;;;16.87;11.07;;;9.90;95.80;;;;;;5101475;28;20950;-64
2023/03/27 06:23:11;;;;;;;15.90;11.33;;;9.90;95.80;;;;;;5092650;28;20227;-65
2023/03/27 06:25:39;;;;;;;16.57;11.73;;;9.90;95.80;;;;;;5093277;28;20217;-65
2023/03/27 06:28:10;;;;;;;14.73;10.60;;;10.00;95.80;;;;;;5093192;28;20199;-65
2023/03/27 06:30:48;;;;;;;11.30;9.73;;;10.00;95.80;;;;;;5093164;28;20204;-64
2023/03/27 06:33:45;;;;;;;16.57;11.70;;;10.10;95.90;;;;;;5082210;28;20211;-65
2023/03/27 06:36:26;;;;;;;16.23;10.60;;;10.20;95.90;;;;;;5089956;28;20246;-64
2023/03/27 06:38:55;;;;;;;15.73;11.83;;;10.20;95.80;;;;;;5092930;28;20215;-64
2023/03/27 06:41:22;;;;;;;18.50;10.07;;;10.30;95.80;;;;;;5092154;28;20206;-64
2023/03/27 06:44:03;;;;;;;16.33;11.50;;;10.40;95.80;;;;;;5080574;28;20622;-64
2023/03/27 06:46:46;;;;;;;16.03;10.87;;;10.40;95.80;;;;;;5091312;28;20200;-65
2023/03/27 06:49:20;;;;;;;17.83;10.50;;;10.50;95.80;;;;;;5092438;28;20197;-65
2023/03/27 06:51:47;;;;;;;14.17;10.77;;;10.50;95.80;;;;;;5092908;28;20264;-64
2023/03/27 06:54:15;;;;;;;15.90;10.77;;;10.60;95.80;;;;;;5092729;28;20637;-65
2023/03/27 06:56:49;;;;;;;14.30;9.73;;;10.60;96.00;;;;;;5093492;28;20238;-66
2023/03/27 06:59:19;;;;;;;12.93;10.83;;;10.70;95.70;;;;;;5111989;28;20707;-64
2023/03/27 07:01:51;;;;;;;15.80;10.10;;;10.70;95.60;;;;;;5095697;28;20211;-65
2023/03/27 07:04:33;;;;;;;13.23;9.53;;;10.70;95.60;;;;;;5095678;28;20220;-65
2023/03/27 07:07:11;;;;;;;12.87;9.50;;;10.80;95.50;;;;;;5094276;28;20204;-65
2023/03/27 07:09:41;;;;;;;10.80;9.17;;;10.80;95.40;;;;;;5094177;28;20197;-64
2023/03/27 07:12:12;;;;;;;12.80;9.67;;;10.80;95.30;;;;;;5096356;28;20339;-64
2023/03/27 07:14:41;;;;;;;13.10;9.80;;;10.80;95.20;;;;;;5078117;28;20216;-64
2023/03/27 07:17:08;;;;;;;11.87;8.83;;;10.80;95.20;;;;;;5096667;28;20218;-64
2023/03/27 07:19:50;;;;;;;12.23;8.40;;;10.80;95.20;;;;;;5092961;28;21136;-64
2023/03/27 07:22:22;;;;;;;11.43;8.53;;;10.80;95.20;;;;;;5092605;28;20240;-64
2023/03/27 07:24:49;;;;;;;14.50;8.90;;;10.70;95.10;;;;;;5077839;28;20221;-66
2023/03/27 07:27:18;;;;;;;15.20;9.53;;;10.70;95.00;;;;;;5095280;28;20192;-65
2023/03/27 07:29:45;;;;;;;10.93;8.50;;;10.70;95.00;;;;;;5095714;28;20200;-66
2023/03/27 07:32:17;;;;;;;11.63;8.57;;;10.80;95.20;;;;;;5090646;28;20205;-65
2023/03/27 07:35:04;;;;;;;13.77;8.93;;;10.90;95.20;;;;;;5091207;28;20197;-63
2023/03/27 07:37:52;;;;;;;11.93;9.00;;;11.00;95.30;;;;;;5078346;28;20544;-66
2023/03/27 07:40:34;;;;;;;13.17;9.63;;;11.20;95.40;;;;;;5093149;28;20279;-64
2023/03/27 07:43:38;;;;;;;14.40;8.37;;;11.40;95.20;;;;;;5096170;28;20614;-65
2023/03/27 07:46:06;;;;;;;14.40;7.83;;;11.70;95.10;;;;;;5095203;28;20233;-64
2023/03/27 07:48:34;;;;;;;10.87;8.00;;;11.90;94.80;;;;;;5089166;28;20236;-64
2023/03/27 07:51:01;;;;;;;10.47;8.67;;;12.10;93.60;;;;;;5093403;28;20205;-64
2023/03/27 07:53:40;;;;;;;11.87;7.60;;;12.30;93.30;;;;;;5086516;28;20209;-64
2023/03/27 07:56:27;;;;;;;11.93;7.47;;;12.50;93.10;;;;;;5093572;28;20585;-65
2023/03/27 07:59:31;;;;;;;13.17;7.27;;;12.70;92.30;;;;;;5057591;28;20239;-65
2023/03/27 08:02:14;;;;;;;12.07;7.73;;;12.90;91.60;;;;;;5082714;28;20217;-65
2023/03/27 08:04:41;;;;;;;10.50;6.83;;;13.10;91.40;;;;;;5092020;28;20221;-65
2023/03/27 08:07:10;;;;;;;9.37;6.30;;;13.30;91.20;;;;;;5095520;28;20257;-65
2023/03/27 08:09:40;;;;;;;12.67;6.97;;;13.50;90.30;;;;;;5092552;28;20266;-63
2023/03/27 08:12:07;;;;;;;10.13;6.07;;;13.70;90.40;;;;;;5094388;28;20289;-63
2023/03/27 08:14:40;;;;;;;11.63;6.97;;;13.90;90.20;;;;;;5094595;28;20282;-61
2023/03/27 08:17:34;;;;;;;14.97;7.67;;;14.00;89.40;;;;;;5085653;28;20213;-64
2023/03/27 08:20:07;;;;;;;12.30;7.10;;;14.10;88.80;;;;;;5093341;28;20212;-59
2023/03/27 08:22:43;;;;;;;10.67;6.30;;;14.30;88.40;;;;;;5089639;28;20205;-60
2023/03/27 08:25:32;;;;;;;11.73;6.10;;;14.40;88.30;;;;;;5093995;28;20202;-62
2023/03/27 08:28:01;;;;;;;8.77;6.03;;;14.60;87.50;;;;;;5092614;28;20215;-62
2023/03/27 08:30:29;;;;;;;8.43;6.00;;;14.80;86.90;;;;;;5093066;28;20556;-62
2023/03/27 08:32:58;;;;;;;7.87;6.23;;;14.90;85.90;;;;;;5107079;28;20205;-62
2023/03/27 08:35:26;;;;;;;10.63;6.20;;;15.00;85.60;;;;;;5093059;28;20284;-62
2023/03/27 08:37:53;;;;;;;7.27;5.67;;;15.20;85.00;;;;;;5082133;28;20687;-62
2023/03/27 08:40:30;;;;;;;8.40;5.90;;;15.30;84.10;;;;;;5092619;28;20205;-63
2023/03/27 08:43:21;;;;;;;7.70;5.70;;;15.40;82.80;;;;;;5092313;28;20629;-61
2023/03/27 08:45:55;;;;;;;7.43;6.43;;;15.50;80.90;;;;;;5088547;28;20233;-61
2023/03/27 08:48:49;;;;;;;7.03;5.40;;;15.50;79.20;;;;;;5083844;28;20205;-60
2023/03/27 08:51:23;;;;;;;7.67;6.07;;;15.50;81.70;;;;;;5090290;28;20638;-62
2023/03/27 08:53:56;;;;;;;9.20;5.60;;;15.70;82.10;;;;;;5092798;28;20294;-62
2023/03/27 08:56:27;;;;;;;11.73;5.93;;;15.80;79.50;;;;;;5093136;28;20559;-64
2023/03/27 08:58:56;;;;;;;5.73;4.67;;;15.90;78.10;;;;;;5090778;28;20205;-63
2023/03/27 09:01:35;;;;;;;6.43;5.23;;;15.90;75.20;;;;;;5090049;28;20229;-63
2023/03/27 09:04:19;;;;;;;8.53;5.70;;;16.00;78.10;;;;;;5105383;27;20201;-63
2023/03/27 09:06:54;;;;;;;8.03;5.83;;;16.10;78.40;;;;;;5092644;28;20204;-64
2023/03/27 09:09:58;;;;;;;8.20;5.00;;;16.20;77.30;;;;;;5102871;28;20217;-63
2023/03/27 09:12:30;;;;;;;7.10;5.27;;;16.40;76.80;;;;;;5088422;28;20251;-63
2023/03/27 09:15:14;;;;;;;8.50;5.27;;;16.50;74.20;;;;;;5091912;28;20620;-62
2023/03/27 09:17:52;;;;;;;6.87;4.57;;;16.70;72.90;;;;;;5082665;28;20198;-62
2023/03/27 09:20:31;;;;;;;5.80;5.03;;;16.70;72.80;;;;;;5092892;28;20222;-61
2023/03/27 09:23:14;;;;;;;5.57;4.87;;;16.80;71.50;;;;;;5091020;28;20248;-61
2023/03/27 09:26:06;;;;;;;8.70;5.10;;;16.90;71.70;;;;;;5089020;28;20205;-61
2023/03/27 09:29:02;;;;;;;9.23;4.67;;;17.00;71.90;;;;;;5090850;28;20238;-60
2023/03/27 09:31:46;;;;;;;6.07;4.60;;;17.20;71.70;;;;;;5107622;28;20615;-62
2023/03/27 09:34:17;;;;;;;5.10;4.60;;;17.30;70.60;;;;;;5091327;28;20229;-62
2023/03/27 09:36:45;;;;;;;8.13;4.17;;;17.40;63.50;;;;;;5092444;28;20236;-61
2023/03/27 09:39:20;;;;;;;6.37;3.97;;;17.30;65.10;;;;;;5093027;28;20201;-63
2023/03/27 09:42:10;;;;;;;4.33;3.93;;;17.30;65.10;;;;;;5086049;28;20205;-63
2023/03/27 09:44:41;;;;;;;5.67;4.83;;;17.20;66.90;;;;;;5073422;28;20687;-63
2023/03/27 09:47:15;;;;;;;5.50;3.80;;;17.20;67.60;;;;;;5090320;28;20581;-63
2023/03/27 09:50:00;;;;;;;4.93;3.93;;;17.30;68.70;;;;;;5088919;28;20214;-62
2023/03/27 09:52:47;;;;;;;5.70;4.27;;;17.40;64.60;;;;;;5091324;28;20716;-61
2023/03/27 09:55:31;;;;;;;4.53;3.60;;;17.40;61.20;;;;;;5089172;28;20598;-60
2023/03/27 09:58:22;;;;;;;4.77;4.10;;;17.30;64.70;;;;;;5098466;28;20198;-62
2023/03/27 10:01:09;;;;;;;4.67;4.03;;;17.30;65.20;;;;;;5106148;28;20289;-62
2023/03/27 10:03:50;;;;;;;5.53;4.37;;;17.20;67.80;;;;;;5081829;28;20258;-61
2023/03/27 10:06:37;;;;;;;6.57;3.90;;;17.30;66.70;;;;;;5103681;28;20200;-62
2023/03/27 10:09:26;;;;;;;5.80;4.50;;;17.40;64.90;;;;;;5083966;28;20207;-61
2023/03/27 10:12:06;;;;;;;6.20;4.00;;;17.50;65.90;;;;;;5088153;28;20648;-62
2023/03/27 10:14:46;;;;;;;6.23;4.00;;;17.60;65.40;;;;;;5076954;28;20215;-62
2023/03/27 10:17:31;;;;;;;5.13;4.30;;;17.60;64.70;;;;;;5091727;28;20216;-64
2023/03/27 10:20:12;;;;;;;6.30;4.13;;;17.70;63.50;;;;;;5081342;28;20203;-61
2023/03/27 10:22:48;;;;;;;7.33;4.23;;;17.70;63.10;;;;;;5089216;28;20212;-62
2023/03/27 10:25:33;;;;;;;5.50;4.07;;;17.70;62.50;;;;;;5092012;28;20634;-63
2023/03/27 10:28:25;;;;;;;4.90;3.47;;;17.70;63.50;;;;;;5105216;28;20203;-64
2023/03/27 10:31:28;;;;;;;5.77;3.87;;;17.80;62.50;;;;;;5091373;28;20206;-62
2023/03/27 10:34:35;;;;;;;4.00;3.43;;;17.80;60.30;;;;;;5078142;28;20210;-62
2023/03/27 10:37:33;;;;;;;4.10;3.60;;;17.70;61.70;;;;;;5094273;28;21084;-62
2023/03/27 10:40:32;;;;;;;6.07;3.20;;;17.80;64.60;;;;;;5095999;28;20302;-64
2023/03/27 10:43:29;;;;;;;7.93;2.97;;;18.00;64.00;;;;;;5111768;28;20214;-63
2023/03/27 10:46:04;;;;;;;5.10;2.93;;;18.10;60.30;;;;;;5104008;28;20323;-62
2023/03/27 10:49:27;;;;;;;7.53;3.37;;;18.30;61.50;;;;;;5108672;28;20197;-62
2023/03/27 10:52:17;;;;;;;5.00;2.93;;;18.30;61.50;;;;;;5063250;28;20234;-61
2023/03/27 10:55:16;;;;;;;4.50;3.00;;;18.50;62.10;;;;;;5084256;28;20214;-61
2023/03/27 10:57:48;;;;;;;5.73;3.60;;;18.70;61.00;;;;;;5093708;28;20583;-64
2023/03/27 11:00:39;;;;;;;4.77;2.70;;;18.90;61.10;;;;;;5094279;28;20209;-61
2023/03/27 11:03:21;;;;;;;4.53;2.83;;;19.10;60.40;;;;;;5110015;28;20204;-61
2023/03/27 11:05:59;;;;;;;4.17;2.93;;;19.20;60.00;;;;;;5084334;28;20286;-62
2023/03/27 11:08:51;;;;;;;5.00;2.80;;;19.30;60.80;;;;;;5095549;28;20208;-62
2023/03/27 11:11:36;;;;;;;2.90;2.50;;;19.40;59.40;;;;;;5092345;28;20295;-64
2023/03/27 11:14:10;;;;;;;3.13;2.17;;;19.60;60.90;;;;;;5092683;28;20205;-61
2023/03/27 11:16:43;;;;;;;5.13;2.23;;;19.70;58.30;;;;;;5089572;28;20205;-62
2023/03/27 11:19:10;;;;;;;2.43;1.97;;;19.80;54.70;;;;;;5094861;28;20215;-63
2023/03/27 11:22:31;;;;;;;5.47;1.90;;;19.70;54.30;;;;;;5091414;28;20209;-65
2023/03/27 11:25:06;;;;;;;2.80;2.27;;;19.70;56.20;;;;;;5082979;28;20239;-63
2023/03/27 11:28:02;;;;;;;2.77;2.10;;;19.80;54.40;;;;;;5089372;28;20215;-62
2023/03/27 11:31:04;;;;;;;1.70;1.60;;;19.80;53.90;;;;;;5083787;28;20498;-63
2023/03/27 11:34:04;;;;;;;2.57;1.80;;;19.90;53.50;;;;;;5093167;28;20228;-65
2023/03/27 11:36:42;;;;;;;2.87;1.90;;;19.90;52.30;;;;;;5110367;28;20200;-63
2023/03/27 11:39:35;;;;;;;2.07;1.67;;;19.90;53.50;;;;;;5108230;28;20201;-63
2023/03/27 11:42:16;;;;;;;3.63;1.87;;;19.80;52.80;;;;;;5093068;28;20242;-64
2023/03/27 11:44:47;;;;;;;3.40;1.80;;;19.80;52.70;;;;;;5089929;28;20239;-63
2023/03/27 11:47:42;;;;;;;1.60;1.47;;;19.80;51.40;;;;;;5093524;28;20204;-63
2023/03/27 11:50:26;;;;;;;2.83;2.07;;;19.90;51.60;;;;;;5108592;28;20685;-63
2023/03/27 11:53:32;;;;;;;2.73;1.97;;;19.90;52.50;;;;;;5095024;28;20614;-64
2023/03/27 11:56:40;;;;;;;2.07;1.50;;;20.00;54.10;;;;;;5062613;28;20639;-64
2023/03/27 11:59:40;;;;;;;2.83;1.47;;;20.10;52.30;;;;;;5049330;28;20197;-64
2023/03/27 12:02:32;;;;;;;2.17;1.63;;;20.20;52.60;;;;;;5108991;28;20254;-63
2023/03/27 12:05:37;;;;;;;4.77;1.90;;;20.20;51.00;;;;;;5106432;28;20228;-67
2023/03/27 12:08:21;;;;;;;2.33;1.53;;;20.20;49.90;;;;;;5087141;28;20674;-63
2023/03/27 12:10:53;;;;;;;2.77;1.23;;;20.10;48.10;;;;;;5087547;28;20784;-63
2023/03/27 12:13:48;;;;;;;1.30;1.00;;;20.10;49.20;;;;;;5108523;28;20230;-64
2023/03/27 12:16:54;;;;;;;1.90;1.00;;;20.20;48.10;;;;;;5080564;28;20215;-65
2023/03/27 12:19:34;;;;;;;2.57;1.30;;;20.20;49.10;;;;;;5103685;28;20608;-65
2023/03/27 12:22:46;;;;;;;1.20;0.80;;;20.30;46.20;;;;;;5090442;28;20651;-64
2023/03/27 12:26:11;;;;;;;0.90;0.63;;;20.30;45.90;;;;;;5095264;28;20271;-64
2023/03/27 12:29:29;;;;;;;0.47;0.43;;;20.40;43.50;;;;;;5108011;28;20215;-64
2023/03/27 12:32:48;;;;;;;0.43;0.43;;;20.50;42.10;;;;;;5103540;28;20209;-62
2023/03/27 12:35:21;;;;;;;1.23;0.40;;;20.50;43.60;;;;;;5055026;28;20234;-64
2023/03/27 12:38:11;;;;;;;0.43;0.30;;;20.70;43.70;;;;;;5089304;28;20212;-65
2023/03/27 12:40:46;;;;;;;1.27;0.40;;;20.80;43.10;;;;;;5105725;28;20220;-64
2023/03/27 12:43:32;;;;;;;0.40;0.40;;;21.00;43.00;;;;;;5087891;28;20258;-62
2023/03/27 12:46:25;;;;;;;1.17;0.40;;;21.10;41.70;;;;;;5088410;28;20232;-64
2023/03/27 12:48:59;;;;;;;2.43;0.50;;;21.00;39.20;;;;;;5091179;28;20203;-67
2023/03/27 12:51:42;;;;;;;0.30;0.30;;;21.00;39.70;;;;;;5090176;28;20205;-66
2023/03/27 12:54:24;;;;;;;0.20;0.20;;;21.00;39.50;;;;;;5104471;28;20220;-65
2023/03/27 12:57:17;;;;;;;2.10;0.30;;;20.90;40.00;;;;;;5085679;28;20205;-67
2023/03/27 12:59:47;;;;;;;0.57;0.30;;;20.80;38.90;;;;;;5091339;28;20202;-66
2023/03/27 13:02:38;;;;;;;0.30;0.30;;;20.80;39.70;;;;;;5091624;28;20271;-66
2023/03/27 13:05:41;;;;;;;2.00;0.30;;;20.80;39.30;;;;;;5102874;28;20233;-65
2023/03/27 13:08:48;;;;;;;2.83;0.30;;;20.80;39.30;;;;;;5092600;28;20228;-66
2023/03/27 13:11:48;;;;;;;1.80;0.50;;;20.90;40.00;;;;;;5089474;28;20306;-64
2023/03/27 13:15:10;;;;;;;1.40;0.50;;;21.10;40.50;;;;;;5092016;28;20201;-66
2023/03/27 13:17:38;;;;;;;0.60;0.60;;;21.30;39.10;;;;;;5064188;28;20233;-65
2023/03/27 13:20:09;;;;;;;1.20;0.30;;;21.40;37.80;;;;;;5086635;28;20633;-67
2023/03/27 13:22:48;;;;;;;0.30;0.30;;;21.50;38.00;;;;;;5092241;28;20544;-65
2023/03/27 13:25:20;;;;;;;1.63;0.50;;;21.60;38.30;;;;;;5087470;28;20213;-63
2023/03/27 13:28:22;;;;;;;7.73;2.63;;;21.60;36.80;;;;;;5093386;28;20201;-64
2023/03/27 13:31:04;;;;;;;2.53;1.77;;;21.70;35.80;;;;;;5102142;28;20247;-64
2023/03/27 13:34:28;;;;;;;1.73;0.30;;;21.70;37.60;;;;;;5085667;28;20292;-65
2023/03/27 13:37:06;;;;;;;3.17;0.60;;;21.80;40.10;;;;;;5106591;28;20263;-63
2023/03/27 13:39:44;;;;;;;0.90;0.40;;;21.90;38.90;;;;;;5092621;28;20630;-62
2023/03/27 13:42:20;;;;;;;1.20;0.97;;;21.90;36.50;;;;;;5089866;28;20197;-66
2023/03/27 13:45:00;;;;;;;1.10;0.70;;;22.00;38.60;;;;;;5106711;28;20264;-66
2023/03/27 13:47:43;;;;;;;0.50;0.40;;;22.00;39.80;;;;;;5083956;28;20274;-64